Terminal Aerodrome Forecast
Issued by NWS

Home | Current Version | Previous Version | Text Only | Print | Product List | Glossary On
Versions: 1 2 3 4 5 6 7 8 9 10 11 12 13 14 15 16 17 18 19
000
FTUS43 KPAH 292320
TAFCGI
TAF
KCGI 292320Z 3000/3024 17006KT P6SM SCT035 BKN090
      TEMPO 3003/3007 -SHRA
     FM300700 17007KT P6SM BKN035 OVC100
      TEMPO 3009/3013 5SM BR
     FM301300 19010KT P6SM BKN028 OVC080
      TEMPO 3018/3022 6SM -TSRA BR OVC030CB=

USA.gov is the U.S. government's official web portal to all federal, state and local government web resources and services.